sensor_id;sensor_type;location;lat;lon;timestamp;temperature;humidity
16968;DHT22;64862;54.398;10.126;2024-01-30T00:09:48;7.80;99.90
16968;DHT22;64862;54.398;10.126;2024-01-30T00:19:50;7.80;99.90
16968;DHT22;64862;54.398;10.126;2024-01-30T00:29:54;7.80;99.90
16968;DHT22;64862;54.398;10.126;2024-01-30T00:39:55;7.80;99.90
16968;DHT22;64862;54.398;10.126;2024-01-30T00:49:59;7.80;99.90
16968;DHT22;64862;54.398;10.126;2024-01-30T01:00:01;7.80;99.90
16968;DHT22;64862;54.398;10.126;2024-01-30T01:10:05;7.80;99.90
16968;DHT22;64862;54.398;10.126;2024-01-30T01:20:09;7.90;99.90
16968;DHT22;64862;54.398;10.126;2024-01-30T01:30:13;7.90;99.90
16968;DHT22;64862;54.398;10.126;2024-01-30T01:40:19;8.00;99.90
16968;DHT22;64862;54.398;10.126;2024-01-30T01:50:23;8.00;99.90
16968;DHT22;64862;54.398;10.126;2024-01-30T02:00:25;8.00;99.90
16968;DHT22;64862;54.398;10.126;2024-01-30T02:10:28;8.00;99.90
16968;DHT22;64862;54.398;10.126;2024-01-30T02:20:31;7.90;99.90
16968;DHT22;64862;54.398;10.126;2024-01-30T02:30:37;7.90;99.90
16968;DHT22;64862;54.398;10.126;2024-01-30T02:40:39;7.90;99.90
16968;DHT22;64862;54.398;10.126;2024-01-30T02:50:43;7.80;99.90
16968;DHT22;64862;54.398;10.126;2024-01-30T03:00:45;7.60;99.90
16968;DHT22;64862;54.398;10.126;2024-01-30T03:10:48;7.50;99.90
16968;DHT22;64862;54.398;10.126;2024-01-30T03:20:50;7.40;99.90
16968;DHT22;64862;54.398;10.126;2024-01-30T03:30:53;7.30;99.90
16968;DHT22;64862;54.398;10.126;2024-01-30T03:40:55;7.10;99.90
16968;DHT22;64862;54.398;10.126;2024-01-30T03:50:59;7.10;99.90
16968;DHT22;64862;54.398;10.126;2024-01-30T04:01:01;7.10;99.90
16968;DHT22;64862;54.398;10.126;2024-01-30T04:11:05;7.10;99.90
16968;DHT22;64862;54.398;10.126;2024-01-30T04:21:07;7.10;99.90
16968;DHT22;64862;54.398;10.126;2024-01-30T04:31:12;7.00;99.90
16968;DHT22;64862;54.398;10.126;2024-01-30T04:41:14;6.80;99.90
16968;DHT22;64862;54.398;10.126;2024-01-30T04:51:17;6.60;99.90
16968;DHT22;64862;54.398;10.126;2024-01-30T05:01:19;6.60;99.90
16968;DHT22;64862;54.398;10.126;2024-01-30T05:11:22;6.50;99.90
16968;DHT22;64862;54.398;10.126;2024-01-30T05:21:24;6.40;99.90
16968;DHT22;64862;54.398;10.126;2024-01-30T05:31:27;6.40;99.90
16968;DHT22;64862;54.398;10.126;2024-01-30T05:41:30;6.50;99.90
16968;DHT22;64862;54.398;10.126;2024-01-30T05:51:34;6.60;99.90
16968;DHT22;64862;54.398;10.126;2024-01-30T06:01:36;6.70;99.90
16968;DHT22;64862;54.398;10.126;2024-01-30T06:11:39;6.70;99.90
16968;DHT22;64862;54.398;10.126;2024-01-30T06:21:41;6.80;99.90
16968;DHT22;64862;54.398;10.126;2024-01-30T06:31:44;6.80;99.90
16968;DHT22;64862;54.398;10.126;2024-01-30T06:41:46;6.70;99.90
16968;DHT22;64862;54.398;10.126;2024-01-30T06:51:49;6.70;99.90
16968;DHT22;64862;54.398;10.126;2024-01-30T07:01:51;6.70;99.90
16968;DHT22;64862;54.398;10.126;2024-01-30T07:11:55;6.70;99.90
16968;DHT22;64862;54.398;10.126;2024-01-30T07:21:58;6.70;99.90
16968;DHT22;64862;54.398;10.126;2024-01-30T07:32:02;6.70;99.90
16968;DHT22;64862;54.398;10.126;2024-01-30T07:42:04;6.80;99.90
16968;DHT22;64862;54.398;10.126;2024-01-30T07:52:08;6.80;99.90
16968;DHT22;64862;54.398;10.126;2024-01-30T08:02:10;6.80;99.90
16968;DHT22;64862;54.398;10.126;2024-01-30T08:12:13;6.80;99.90
16968;DHT22;64862;54.398;10.126;2024-01-30T08:22:15;6.90;99.90
16968;DHT22;64862;54.398;10.126;2024-01-30T08:32:18;7.00;99.90
16968;DHT22;64862;54.398;10.126;2024-01-30T08:42:21;7.00;99.90
16968;DHT22;64862;54.398;10.126;2024-01-30T08:52:25;7.10;99.90
16968;DHT22;64862;54.398;10.126;2024-01-30T09:02:27;7.20;99.90
16968;DHT22;64862;54.398;10.126;2024-01-30T09:12:30;7.40;99.90
16968;DHT22;64862;54.398;10.126;2024-01-30T09:22:32;7.50;99.90
16968;DHT22;64862;54.398;10.126;2024-01-30T09:32:36;7.50;99.90
16968;DHT22;64862;54.398;10.126;2024-01-30T09:42:38;7.60;99.90
16968;DHT22;64862;54.398;10.126;2024-01-30T09:52:42;7.70;99.90
16968;DHT22;64862;54.398;10.126;2024-01-30T10:02:44;7.80;99.90
16968;DHT22;64862;54.398;10.126;2024-01-30T10:12:48;7.90;99.90
16968;DHT22;64862;54.398;10.126;2024-01-30T10:22:50;8.00;99.90
16968;DHT22;64862;54.398;10.126;2024-01-30T10:32:54;8.00;99.90
16968;DHT22;64862;54.398;10.126;2024-01-30T10:42:56;8.10;99.90
16968;DHT22;64862;54.398;10.126;2024-01-30T10:52:59;8.20;99.90
16968;DHT22;64862;54.398;10.126;2024-01-30T11:03:02;8.40;99.90
16968;DHT22;64862;54.398;10.126;2024-01-30T11:13:13;8.40;99.90
16968;DHT22;64862;54.398;10.126;2024-01-30T11:23:15;8.50;99.90
16968;DHT22;64862;54.398;10.126;2024-01-30T11:33:29;8.50;99.90
16968;DHT22;64862;54.398;10.126;2024-01-30T11:43:31;8.50;99.90
16968;DHT22;64862;54.398;10.126;2024-01-30T11:53:36;8.50;99.90
16968;DHT22;64862;54.398;10.126;2024-01-30T12:03:38;8.50;99.90
16968;DHT22;64862;54.398;10.126;2024-01-30T12:13:42;8.60;99.90
16968;DHT22;64862;54.398;10.126;2024-01-30T12:23:45;8.60;99.90
16968;DHT22;64862;54.398;10.126;2024-01-30T12:33:50;8.70;99.90
16968;DHT22;64862;54.398;10.126;2024-01-30T12:43:52;8.70;99.90
16968;DHT22;64862;54.398;10.126;2024-01-30T12:53:57;8.80;99.90
16968;DHT22;64862;54.398;10.126;2024-01-30T13:04:00;8.80;99.90
16968;DHT22;64862;54.398;10.126;2024-01-30T13:14:05;8.90;99.90
16968;DHT22;64862;54.398;10.126;2024-01-30T13:24:07;8.90;99.90
16968;DHT22;64862;54.398;10.126;2024-01-30T13:34:12;8.90;99.90
16968;DHT22;64862;54.398;10.126;2024-01-30T13:44:14;8.90;99.90
16968;DHT22;64862;54.398;10.126;2024-01-30T13:54:20;8.90;99.90
16968;DHT22;64862;54.398;10.126;2024-01-30T14:04:22;8.90;99.90
16968;DHT22;64862;54.398;10.126;2024-01-30T14:14:25;9.00;99.90
16968;DHT22;64862;54.398;10.126;2024-01-30T14:24:28;9.00;99.90
16968;DHT22;64862;54.398;10.126;2024-01-30T14:34:32;9.00;99.90
16968;DHT22;64862;54.398;10.126;2024-01-30T14:44:35;9.10;99.90
16968;DHT22;64862;54.398;10.126;2024-01-30T14:54:40;9.20;99.90
16968;DHT22;64862;54.398;10.126;2024-01-30T15:04:43;9.20;99.90
16968;DHT22;64862;54.398;10.126;2024-01-30T15:14:48;9.20;99.90
16968;DHT22;64862;54.398;10.126;2024-01-30T15:24:52;9.10;99.90
16968;DHT22;64862;54.398;10.126;2024-01-30T15:34:56;9.10;99.90
16968;DHT22;64862;54.398;10.126;2024-01-30T15:45:03;9.10;99.90
16968;DHT22;64862;54.398;10.126;2024-01-30T15:55:07;9.00;99.90
16968;DHT22;64862;54.398;10.126;2024-01-30T16:05:11;9.10;99.90
16968;DHT22;64862;54.398;10.126;2024-01-30T16:15:15;9.10;99.90
16968;DHT22;64862;54.398;10.126;2024-01-30T16:25:19;9.10;99.90
16968;DHT22;64862;54.398;10.126;2024-01-30T16:35:23;9.10;99.90
16968;DHT22;64862;54.398;10.126;2024-01-30T16:45:25;9.10;99.90
16968;DHT22;64862;54.398;10.126;2024-01-30T16:55:29;9.00;99.90
16968;DHT22;64862;54.398;10.126;2024-01-30T17:05:31;8.90;99.90
16968;DHT22;64862;54.398;10.126;2024-01-30T17:15:35;9.00;99.90
16968;DHT22;64862;54.398;10.126;2024-01-30T17:25:38;8.90;99.90
16968;DHT22;64862;54.398;10.126;2024-01-30T17:35:42;8.90;99.90
16968;DHT22;64862;54.398;10.126;2024-01-30T17:45:44;8.90;99.90
16968;DHT22;64862;54.398;10.126;2024-01-30T17:55:47;8.90;99.90
16968;DHT22;64862;54.398;10.126;2024-01-30T18:05:49;8.90;99.90
16968;DHT22;64862;54.398;10.126;2024-01-30T18:15:53;8.80;99.90
16968;DHT22;64862;54.398;10.126;2024-01-30T18:25:56;8.70;99.90
16968;DHT22;64862;54.398;10.126;2024-01-30T18:36:03;8.70;99.90
16968;DHT22;64862;54.398;10.126;2024-01-30T18:46:07;8.80;99.90
16968;DHT22;64862;54.398;10.126;2024-01-30T18:56:13;8.80;99.90
16968;DHT22;64862;54.398;10.126;2024-01-30T19:06:17;8.70;99.90
16968;DHT22;64862;54.398;10.126;2024-01-30T19:16:22;8.70;99.90
16968;DHT22;64862;54.398;10.126;2024-01-30T19:26:26;8.70;99.90
16968;DHT22;64862;54.398;10.126;2024-01-30T19:36:29;8.60;99.90
16968;DHT22;64862;54.398;10.126;2024-01-30T19:46:32;8.50;99.90
16968;DHT22;64862;54.398;10.126;2024-01-30T19:56:36;8.50;99.90
16968;DHT22;64862;54.398;10.126;2024-01-30T20:06:40;8.50;99.90
16968;DHT22;64862;54.398;10.126;2024-01-30T20:16:43;8.40;99.90
16968;DHT22;64862;54.398;10.126;2024-01-30T20:26:46;8.40;99.90
16968;DHT22;64862;54.398;10.126;2024-01-30T20:36:50;8.30;99.90
16968;DHT22;64862;54.398;10.126;2024-01-30T20:46:54;8.30;99.90
16968;DHT22;64862;54.398;10.126;2024-01-30T20:56:57;8.20;99.90
16968;DHT22;64862;54.398;10.126;2024-01-30T21:07:00;8.20;99.90
16968;DHT22;64862;54.398;10.126;2024-01-30T21:17:04;8.10;99.90
16968;DHT22;64862;54.398;10.126;2024-01-30T21:27:06;7.90;99.90
16968;DHT22;64862;54.398;10.126;2024-01-30T21:37:10;7.80;99.90
16968;DHT22;64862;54.398;10.126;2024-01-30T21:47:12;7.70;99.90
16968;DHT22;64862;54.398;10.126;2024-01-30T21:57:16;7.60;99.90
16968;DHT22;64862;54.398;10.126;2024-01-30T22:07:18;7.60;99.90
16968;DHT22;64862;54.398;10.126;2024-01-30T22:17:22;7.60;99.90
16968;DHT22;64862;54.398;10.126;2024-01-30T22:27:25;7.50;99.90
16968;DHT22;64862;54.398;10.126;2024-01-30T22:37:29;7.40;99.90
16968;DHT22;64862;54.398;10.126;2024-01-30T22:47:32;7.40;99.90
16968;DHT22;64862;54.398;10.126;2024-01-30T22:57:36;7.30;99.90
16968;DHT22;64862;54.398;10.126;2024-01-30T23:07:38;7.10;99.90
16968;DHT22;64862;54.398;10.126;2024-01-30T23:17:44;7.10;99.90
16968;DHT22;64862;54.398;10.126;2024-01-30T23:27:45;7.00;99.90
16968;DHT22;64862;54.398;10.126;2024-01-30T23:37:49;6.90;99.90
16968;DHT22;64862;54.398;10.126;2024-01-30T23:47:52;6.90;99.90
16968;DHT22;64862;54.398;10.126;2024-01-30T23:57:55;6.90;99.90
